Terminal Aerodrome Forecast
Issued by NWS

Home | Current Version | Previous Version | Text Only | Print | Product List | Glossary On
Versions: 1 2 3 4 5 6 7 8 9 10 11 12 13 14 15 16 17
000
FTUS43 KDVN 240520
TAFBRL
TAF
KBRL 240520Z 2406/2506 17009KT P6SM SKC
     FM240900 16005KT 5SM BR SCT250
     FM241600 22010KT P6SM BKN050
     FM250200 30008KT P6SM SKC=

USA.gov is the U.S. government's official web portal to all federal, state and local government web resources and services.